sensor_id;sensor_type;location;lat;lon;timestamp;temperature;humidity
15690;DHT22;7945;48.816;11.506;2023-08-24T00:01:13;24.50;85.00
15690;DHT22;7945;48.816;11.506;2023-08-24T00:03:44;24.50;85.30
15690;DHT22;7945;48.816;11.506;2023-08-24T00:06:11;24.50;85.30
15690;DHT22;7945;48.816;11.506;2023-08-24T00:08:38;24.40;85.40
15690;DHT22;7945;48.816;11.506;2023-08-24T00:11:04;24.40;85.50
15690;DHT22;7945;48.816;11.506;2023-08-24T00:13:33;24.40;85.60
15690;DHT22;7945;48.816;11.506;2023-08-24T00:16:00;24.40;85.70
15690;DHT22;7945;48.816;11.506;2023-08-24T00:18:27;24.40;85.80
15690;DHT22;7945;48.816;11.506;2023-08-24T00:20:55;24.30;85.80
15690;DHT22;7945;48.816;11.506;2023-08-24T00:23:21;24.30;86.00
15690;DHT22;7945;48.816;11.506;2023-08-24T00:25:48;24.20;86.10
15690;DHT22;7945;48.816;11.506;2023-08-24T00:28:15;24.20;86.10
15690;DHT22;7945;48.816;11.506;2023-08-24T00:30:42;24.20;86.00
15690;DHT22;7945;48.816;11.506;2023-08-24T00:33:08;24.20;85.90
15690;DHT22;7945;48.816;11.506;2023-08-24T00:35:35;24.20;85.70
15690;DHT22;7945;48.816;11.506;2023-08-24T00:38:04;24.20;85.40
15690;DHT22;7945;48.816;11.506;2023-08-24T00:40:30;24.20;85.30
15690;DHT22;7945;48.816;11.506;2023-08-24T00:42:58;24.20;85.40
15690;DHT22;7945;48.816;11.506;2023-08-24T00:45:24;24.20;85.60
15690;DHT22;7945;48.816;11.506;2023-08-24T00:47:51;24.10;85.60
15690;DHT22;7945;48.816;11.506;2023-08-24T00:50:18;24.10;85.70
15690;DHT22;7945;48.816;11.506;2023-08-24T00:52:47;24.10;85.80
15690;DHT22;7945;48.816;11.506;2023-08-24T00:55:16;24.00;85.90
15690;DHT22;7945;48.816;11.506;2023-08-24T00:57:43;23.90;86.00
15690;DHT22;7945;48.816;11.506;2023-08-24T01:00:11;23.90;86.20
15690;DHT22;7945;48.816;11.506;2023-08-24T01:02:39;23.90;86.40
15690;DHT22;7945;48.816;11.506;2023-08-24T01:08:30;23.90;86.90
15690;DHT22;7945;48.816;11.506;2023-08-24T01:11:05;23.70;86.90
15690;DHT22;7945;48.816;11.506;2023-08-24T01:13:40;23.80;86.80
15690;DHT22;7945;48.816;11.506;2023-08-24T01:16:14;23.70;86.70
15690;DHT22;7945;48.816;11.506;2023-08-24T01:18:43;23.70;86.60
15690;DHT22;7945;48.816;11.506;2023-08-24T01:21:10;23.70;86.60
15690;DHT22;7945;48.816;11.506;2023-08-24T01:23:45;23.70;86.70
15690;DHT22;7945;48.816;11.506;2023-08-24T01:26:18;23.70;86.70
15690;DHT22;7945;48.816;11.506;2023-08-24T01:28:46;23.60;86.70
15690;DHT22;7945;48.816;11.506;2023-08-24T01:31:13;23.60;86.70
15690;DHT22;7945;48.816;11.506;2023-08-24T01:33:41;23.60;86.50
15690;DHT22;7945;48.816;11.506;2023-08-24T01:36:08;23.60;86.50
15690;DHT22;7945;48.816;11.506;2023-08-24T01:38:35;23.60;86.80
15690;DHT22;7945;48.816;11.506;2023-08-24T01:41:09;23.60;87.00
15690;DHT22;7945;48.816;11.506;2023-08-24T01:43:40;23.60;87.10
15690;DHT22;7945;48.816;11.506;2023-08-24T01:46:09;23.50;87.20
15690;DHT22;7945;48.816;11.506;2023-08-24T01:48:38;23.50;87.30
15690;DHT22;7945;48.816;11.506;2023-08-24T01:51:06;23.50;87.30
15690;DHT22;7945;48.816;11.506;2023-08-24T01:53:34;23.50;87.40
15690;DHT22;7945;48.816;11.506;2023-08-24T01:56:00;23.50;87.30
15690;DHT22;7945;48.816;11.506;2023-08-24T01:58:27;23.50;87.30
15690;DHT22;7945;48.816;11.506;2023-08-24T02:00:55;23.50;87.30
15690;DHT22;7945;48.816;11.506;2023-08-24T02:03:22;23.50;87.40
15690;DHT22;7945;48.816;11.506;2023-08-24T02:05:49;23.40;87.50
15690;DHT22;7945;48.816;11.506;2023-08-24T02:08:16;23.40;87.70
15690;DHT22;7945;48.816;11.506;2023-08-24T02:10:42;23.40;87.60
15690;DHT22;7945;48.816;11.506;2023-08-24T02:13:09;23.80;87.70
15690;DHT22;7945;48.816;11.506;2023-08-24T02:15:37;23.30;87.40
15690;DHT22;7945;48.816;11.506;2023-08-24T02:18:06;23.30;87.70
15690;DHT22;7945;48.816;11.506;2023-08-24T02:20:35;23.30;87.90
15690;DHT22;7945;48.816;11.506;2023-08-24T02:23:02;23.20;88.00
15690;DHT22;7945;48.816;11.506;2023-08-24T02:25:28;23.20;88.20
15690;DHT22;7945;48.816;11.506;2023-08-24T02:27:55;23.20;88.40
15690;DHT22;7945;48.816;11.506;2023-08-24T02:30:22;23.10;88.60
15690;DHT22;7945;48.816;11.506;2023-08-24T02:32:49;23.10;88.80
15690;DHT22;7945;48.816;11.506;2023-08-24T02:35:17;23.10;89.00
15690;DHT22;7945;48.816;11.506;2023-08-24T02:37:44;23.00;89.30
15690;DHT22;7945;48.816;11.506;2023-08-24T02:40:11;23.00;89.30
15690;DHT22;7945;48.816;11.506;2023-08-24T02:42:38;22.90;89.30
15690;DHT22;7945;48.816;11.506;2023-08-24T02:45:05;22.90;89.40
15690;DHT22;7945;48.816;11.506;2023-08-24T02:47:32;22.90;89.50
15690;DHT22;7945;48.816;11.506;2023-08-24T02:49:59;22.90;89.60
15690;DHT22;7945;48.816;11.506;2023-08-24T02:52:27;22.90;89.70
15690;DHT22;7945;48.816;11.506;2023-08-24T02:54:54;22.80;89.80
15690;DHT22;7945;48.816;11.506;2023-08-24T02:57:21;22.80;89.90
15690;DHT22;7945;48.816;11.506;2023-08-24T02:59:47;22.70;89.70
15690;DHT22;7945;48.816;11.506;2023-08-24T03:02:14;22.70;89.60
15690;DHT22;7945;48.816;11.506;2023-08-24T03:04:41;22.70;89.80
15690;DHT22;7945;48.816;11.506;2023-08-24T03:07:07;22.70;90.20
15690;DHT22;7945;48.816;11.506;2023-08-24T03:09:37;22.70;89.60
15690;DHT22;7945;48.816;11.506;2023-08-24T03:12:04;22.70;89.60
15690;DHT22;7945;48.816;11.506;2023-08-24T03:14:31;22.70;89.70
15690;DHT22;7945;48.816;11.506;2023-08-24T03:16:58;22.70;89.80
15690;DHT22;7945;48.816;11.506;2023-08-24T03:19:24;22.60;89.80
15690;DHT22;7945;48.816;11.506;2023-08-24T03:21:51;22.60;90.00
15690;DHT22;7945;48.816;11.506;2023-08-24T03:24:18;22.50;90.00
15690;DHT22;7945;48.816;11.506;2023-08-24T03:26:46;22.60;90.10
15690;DHT22;7945;48.816;11.506;2023-08-24T03:29:13;22.60;90.10
15690;DHT22;7945;48.816;11.506;2023-08-24T03:31:40;22.60;90.10
15690;DHT22;7945;48.816;11.506;2023-08-24T03:34:06;22.50;90.20
15690;DHT22;7945;48.816;11.506;2023-08-24T03:36:33;22.80;90.30
15690;DHT22;7945;48.816;11.506;2023-08-24T03:39:00;22.50;90.30
15690;DHT22;7945;48.816;11.506;2023-08-24T03:41:27;22.40;90.30
15690;DHT22;7945;48.816;11.506;2023-08-24T03:43:55;22.40;90.30
15690;DHT22;7945;48.816;11.506;2023-08-24T03:46:22;22.40;90.40
15690;DHT22;7945;48.816;11.506;2023-08-24T03:48:48;22.30;90.40
15690;DHT22;7945;48.816;11.506;2023-08-24T03:51:15;22.30;90.50
15690;DHT22;7945;48.816;11.506;2023-08-24T03:53:42;22.30;90.40
15690;DHT22;7945;48.816;11.506;2023-08-24T03:56:09;22.40;90.50
15690;DHT22;7945;48.816;11.506;2023-08-24T03:58:35;22.30;90.40
15690;DHT22;7945;48.816;11.506;2023-08-24T04:01:03;22.30;90.50
15690;DHT22;7945;48.816;11.506;2023-08-24T04:03:32;22.30;90.50
15690;DHT22;7945;48.816;11.506;2023-08-24T04:05:59;22.20;90.50
15690;DHT22;7945;48.816;11.506;2023-08-24T04:08:25;22.20;90.50
15690;DHT22;7945;48.816;11.506;2023-08-24T04:10:52;22.20;90.60
15690;DHT22;7945;48.816;11.506;2023-08-24T04:13:19;22.20;90.60
15690;DHT22;7945;48.816;11.506;2023-08-24T04:15:46;22.10;90.50
15690;DHT22;7945;48.816;11.506;2023-08-24T04:18:14;22.20;90.60
15690;DHT22;7945;48.816;11.506;2023-08-24T04:20:41;22.20;90.60
15690;DHT22;7945;48.816;11.506;2023-08-24T04:23:07;22.20;90.60
15690;DHT22;7945;48.816;11.506;2023-08-24T04:25:39;22.10;90.60
15690;DHT22;7945;48.816;11.506;2023-08-24T04:28:06;22.20;90.60
15690;DHT22;7945;48.816;11.506;2023-08-24T04:30:32;22.20;90.60
15690;DHT22;7945;48.816;11.506;2023-08-24T04:32:59;22.20;90.60
15690;DHT22;7945;48.816;11.506;2023-08-24T04:35:27;22.20;90.70
15690;DHT22;7945;48.816;11.506;2023-08-24T04:37:54;22.20;90.60
15690;DHT22;7945;48.816;11.506;2023-08-24T04:40:21;22.20;90.60
15690;DHT22;7945;48.816;11.506;2023-08-24T04:42:47;22.20;90.60
15690;DHT22;7945;48.816;11.506;2023-08-24T04:45:14;22.20;90.60
15690;DHT22;7945;48.816;11.506;2023-08-24T04:47:41;22.20;90.60
15690;DHT22;7945;48.816;11.506;2023-08-24T04:50:08;22.30;90.60
15690;DHT22;7945;48.816;11.506;2023-08-24T04:52:36;22.30;90.50
15690;DHT22;7945;48.816;11.506;2023-08-24T04:55:04;22.30;90.50
15690;DHT22;7945;48.816;11.506;2023-08-24T04:57:31;22.40;90.50
15690;DHT22;7945;48.816;11.506;2023-08-24T04:59:57;22.30;90.50
15690;DHT22;7945;48.816;11.506;2023-08-24T05:02:24;22.40;90.50
15690;DHT22;7945;48.816;11.506;2023-08-24T05:04:51;22.40;90.60
15690;DHT22;7945;48.816;11.506;2023-08-24T05:07:18;22.40;90.60
15690;DHT22;7945;48.816;11.506;2023-08-24T05:09:46;22.40;90.70
15690;DHT22;7945;48.816;11.506;2023-08-24T05:12:12;22.50;90.60
15690;DHT22;7945;48.816;11.506;2023-08-24T05:14:39;22.50;90.60
15690;DHT22;7945;48.816;11.506;2023-08-24T05:17:06;22.60;90.60
15690;DHT22;7945;48.816;11.506;2023-08-24T05:19:33;22.80;90.30
15690;DHT22;7945;48.816;11.506;2023-08-24T05:21:59;23.20;89.80
15690;DHT22;7945;48.816;11.506;2023-08-24T05:24:26;23.60;88.80
15690;DHT22;7945;48.816;11.506;2023-08-24T05:26:54;24.00;87.70
15690;DHT22;7945;48.816;11.506;2023-08-24T05:29:21;24.40;86.70
15690;DHT22;7945;48.816;11.506;2023-08-24T05:31:48;24.90;85.40
15690;DHT22;7945;48.816;11.506;2023-08-24T05:34:14;25.40;84.30
15690;DHT22;7945;48.816;11.506;2023-08-24T05:36:41;25.90;83.20
15690;DHT22;7945;48.816;11.506;2023-08-24T05:39:08;26.30;81.80
15690;DHT22;7945;48.816;11.506;2023-08-24T05:41:34;26.80;80.40
15690;DHT22;7945;48.816;11.506;2023-08-24T05:44:03;27.40;79.10
15690;DHT22;7945;48.816;11.506;2023-08-24T05:46:30;27.80;77.70
15690;DHT22;7945;48.816;11.506;2023-08-24T05:48:58;28.00;77.10
15690;DHT22;7945;48.816;11.506;2023-08-24T05:51:25;28.30;76.60
15690;DHT22;7945;48.816;11.506;2023-08-24T05:53:51;28.50;76.00
15690;DHT22;7945;48.816;11.506;2023-08-24T05:56:21;28.80;74.90
15690;DHT22;7945;48.816;11.506;2023-08-24T05:58:48;29.00;73.90
15690;DHT22;7945;48.816;11.506;2023-08-24T06:01:16;28.80;74.10
15690;DHT22;7945;48.816;11.506;2023-08-24T06:03:43;28.50;75.30
15690;DHT22;7945;48.816;11.506;2023-08-24T06:06:10;28.20;76.40
15690;DHT22;7945;48.816;11.506;2023-08-24T06:08:36;27.90;77.20
15690;DHT22;7945;48.816;11.506;2023-08-24T06:11:03;27.60;77.80
15690;DHT22;7945;48.816;11.506;2023-08-24T06:15:45;27.40;79.30
15690;DHT22;7945;48.816;11.506;2023-08-24T06:18:11;27.30;79.60
15690;DHT22;7945;48.816;11.506;2023-08-24T06:20:39;27.20;79.70
15690;DHT22;7945;48.816;11.506;2023-08-24T06:23:05;27.10;79.70
15690;DHT22;7945;48.816;11.506;2023-08-24T06:25:33;27.00;79.70
15690;DHT22;7945;48.816;11.506;2023-08-24T06:28:00;27.00;79.50
15690;DHT22;7945;48.816;11.506;2023-08-24T06:30:29;26.90;79.20
15690;DHT22;7945;48.816;11.506;2023-08-24T06:32:59;26.70;79.30
15690;DHT22;7945;48.816;11.506;2023-08-24T06:35:26;26.60;79.50
15690;DHT22;7945;48.816;11.506;2023-08-24T06:37:53;26.60;79.70
15690;DHT22;7945;48.816;11.506;2023-08-24T06:40:20;26.60;79.10
15690;DHT22;7945;48.816;11.506;2023-08-24T06:42:46;26.40;79.00
15690;DHT22;7945;48.816;11.506;2023-08-24T06:45:13;26.30;79.20
15690;DHT22;7945;48.816;11.506;2023-08-24T06:47:40;26.10;79.50
15690;DHT22;7945;48.816;11.506;2023-08-24T06:50:09;26.10;79.80
15690;DHT22;7945;48.816;11.506;2023-08-24T06:52:36;26.10;79.90
15690;DHT22;7945;48.816;11.506;2023-08-24T06:55:04;26.00;80.10
15690;DHT22;7945;48.816;11.506;2023-08-24T06:57:31;26.00;80.50
15690;DHT22;7945;48.816;11.506;2023-08-24T06:59:58;25.90;80.40
15690;DHT22;7945;48.816;11.506;2023-08-24T07:02:25;25.90;80.50
15690;DHT22;7945;48.816;11.506;2023-08-24T07:04:52;25.80;80.60
15690;DHT22;7945;48.816;11.506;2023-08-24T07:07:20;25.80;80.60
15690;DHT22;7945;48.816;11.506;2023-08-24T07:09:47;25.80;80.60
15690;DHT22;7945;48.816;11.506;2023-08-24T07:12:14;26.00;81.20
15690;DHT22;7945;48.816;11.506;2023-08-24T07:14:41;26.10;81.30
15690;DHT22;7945;48.816;11.506;2023-08-24T07:17:07;26.10;81.00
15690;DHT22;7945;48.816;11.506;2023-08-24T07:19:35;26.40;80.10
15690;DHT22;7945;48.816;11.506;2023-08-24T07:22:02;25.90;80.20
15690;DHT22;7945;48.816;11.506;2023-08-24T07:24:30;25.80;81.10
15690;DHT22;7945;48.816;11.506;2023-08-24T07:26:59;25.80;82.00
15690;DHT22;7945;48.816;11.506;2023-08-24T07:29:25;25.80;81.80
15690;DHT22;7945;48.816;11.506;2023-08-24T07:31:52;25.70;81.80
15690;DHT22;7945;48.816;11.506;2023-08-24T07:34:19;25.60;82.30
15690;DHT22;7945;48.816;11.506;2023-08-24T07:36:47;25.50;83.00
15690;DHT22;7945;48.816;11.506;2023-08-24T07:39:14;25.50;83.80
15690;DHT22;7945;48.816;11.506;2023-08-24T07:41:43;25.40;84.50
15690;DHT22;7945;48.816;11.506;2023-08-24T07:44:10;25.40;83.80
15690;DHT22;7945;48.816;11.506;2023-08-24T07:46:38;25.40;83.40
15690;DHT22;7945;48.816;11.506;2023-08-24T07:49:05;25.40;83.30
15690;DHT22;7945;48.816;11.506;2023-08-24T07:51:33;25.50;84.50
15690;DHT22;7945;48.816;11.506;2023-08-24T07:54:00;25.60;83.80
15690;DHT22;7945;48.816;11.506;2023-08-24T07:56:27;25.60;83.50
15690;DHT22;7945;48.816;11.506;2023-08-24T07:58:55;25.60;83.30
15690;DHT22;7945;48.816;11.506;2023-08-24T08:01:21;25.70;83.60
15690;DHT22;7945;48.816;11.506;2023-08-24T08:03:48;25.80;83.40
15690;DHT22;7945;48.816;11.506;2023-08-24T08:06:15;25.80;83.00
15690;DHT22;7945;48.816;11.506;2023-08-24T08:08:42;25.80;83.00
15690;DHT22;7945;48.816;11.506;2023-08-24T08:11:10;25.90;82.90
15690;DHT22;7945;48.816;11.506;2023-08-24T08:13:36;26.10;83.40
15690;DHT22;7945;48.816;11.506;2023-08-24T08:16:05;26.10;83.20
15690;DHT22;7945;48.816;11.506;2023-08-24T08:18:33;26.10;82.70
15690;DHT22;7945;48.816;11.506;2023-08-24T08:21:00;26.30;82.60
15690;DHT22;7945;48.816;11.506;2023-08-24T08:23:27;26.40;82.50
15690;DHT22;7945;48.816;11.506;2023-08-24T08:25:54;26.50;82.60
15690;DHT22;7945;48.816;11.506;2023-08-24T08:28:21;26.50;82.40
15690;DHT22;7945;48.816;11.506;2023-08-24T08:30:48;26.50;82.00
15690;DHT22;7945;48.816;11.506;2023-08-24T08:33:17;26.50;82.10
15690;DHT22;7945;48.816;11.506;2023-08-24T08:35:45;26.50;82.40
15690;DHT22;7945;48.816;11.506;2023-08-24T08:38:11;26.60;82.20
15690;DHT22;7945;48.816;11.506;2023-08-24T08:40:39;26.60;82.40
15690;DHT22;7945;48.816;11.506;2023-08-24T08:43:07;26.60;82.40
15690;DHT22;7945;48.816;11.506;2023-08-24T08:45:34;26.60;82.30
15690;DHT22;7945;48.816;11.506;2023-08-24T08:48:01;26.70;82.10
15690;DHT22;7945;48.816;11.506;2023-08-24T08:50:32;26.70;81.80
15690;DHT22;7945;48.816;11.506;2023-08-24T08:53:00;26.80;81.90
15690;DHT22;7945;48.816;11.506;2023-08-24T08:55:28;26.80;81.90
15690;DHT22;7945;48.816;11.506;2023-08-24T08:57:56;26.80;81.60
15690;DHT22;7945;48.816;11.506;2023-08-24T09:00:24;26.70;81.60
15690;DHT22;7945;48.816;11.506;2023-08-24T09:02:53;26.80;82.00
15690;DHT22;7945;48.816;11.506;2023-08-24T09:05:20;26.80;81.20
15690;DHT22;7945;48.816;11.506;2023-08-24T09:07:49;26.80;81.30
15690;DHT22;7945;48.816;11.506;2023-08-24T09:10:16;26.90;81.10
15690;DHT22;7945;48.816;11.506;2023-08-24T09:12:43;26.90;81.30
15690;DHT22;7945;48.816;11.506;2023-08-24T09:15:10;27.00;80.70
15690;DHT22;7945;48.816;11.506;2023-08-24T09:17:42;27.10;80.50
15690;DHT22;7945;48.816;11.506;2023-08-24T09:20:10;27.20;79.60
15690;DHT22;7945;48.816;11.506;2023-08-24T09:22:37;27.30;79.40
15690;DHT22;7945;48.816;11.506;2023-08-24T09:25:09;27.30;79.20
15690;DHT22;7945;48.816;11.506;2023-08-24T09:27:36;27.30;79.60
15690;DHT22;7945;48.816;11.506;2023-08-24T09:30:03;27.50;79.70
15690;DHT22;7945;48.816;11.506;2023-08-24T09:32:31;27.60;79.30
15690;DHT22;7945;48.816;11.506;2023-08-24T09:35:02;27.60;79.80
15690;DHT22;7945;48.816;11.506;2023-08-24T09:37:31;27.70;79.10
15690;DHT22;7945;48.816;11.506;2023-08-24T09:40:01;27.80;78.80
15690;DHT22;7945;48.816;11.506;2023-08-24T09:42:37;27.80;78.80
15690;DHT22;7945;48.816;11.506;2023-08-24T09:45:06;28.00;78.50
15690;DHT22;7945;48.816;11.506;2023-08-24T09:47:35;28.10;78.50
15690;DHT22;7945;48.816;11.506;2023-08-24T09:50:02;28.20;78.00
15690;DHT22;7945;48.816;11.506;2023-08-24T09:52:32;28.20;77.90
15690;DHT22;7945;48.816;11.506;2023-08-24T09:55:02;28.30;78.00
15690;DHT22;7945;48.816;11.506;2023-08-24T09:57:36;28.40;78.00
15690;DHT22;7945;48.816;11.506;2023-08-24T10:00:06;28.60;77.60
15690;DHT22;7945;48.816;11.506;2023-08-24T10:02:37;28.70;77.20
15690;DHT22;7945;48.816;11.506;2023-08-24T10:05:08;28.80;77.10
15690;DHT22;7945;48.816;11.506;2023-08-24T10:07:37;28.90;76.90
15690;DHT22;7945;48.816;11.506;2023-08-24T10:10:08;29.10;76.70
15690;DHT22;7945;48.816;11.506;2023-08-24T10:12:41;29.20;75.80
15690;DHT22;7945;48.816;11.506;2023-08-24T10:15:08;29.10;75.80
15690;DHT22;7945;48.816;11.506;2023-08-24T10:17:37;29.20;75.60
15690;DHT22;7945;48.816;11.506;2023-08-24T10:20:08;29.30;75.90
15690;DHT22;7945;48.816;11.506;2023-08-24T10:22:37;29.40;75.40
15690;DHT22;7945;48.816;11.506;2023-08-24T10:25:07;29.40;75.60
15690;DHT22;7945;48.816;11.506;2023-08-24T10:27:34;29.30;75.10
15690;DHT22;7945;48.816;11.506;2023-08-24T10:30:03;29.30;75.20
15690;DHT22;7945;48.816;11.506;2023-08-24T10:32:30;29.30;75.20
15690;DHT22;7945;48.816;11.506;2023-08-24T10:34:57;29.40;75.40
15690;DHT22;7945;48.816;11.506;2023-08-24T10:37:26;29.60;75.50
15690;DHT22;7945;48.816;11.506;2023-08-24T10:39:53;29.70;74.50
15690;DHT22;7945;48.816;11.506;2023-08-24T10:42:20;29.80;74.30
15690;DHT22;7945;48.816;11.506;2023-08-24T10:44:47;29.80;74.00
15690;DHT22;7945;48.816;11.506;2023-08-24T10:47:19;29.90;73.50
15690;DHT22;7945;48.816;11.506;2023-08-24T10:49:58;29.90;73.50
15690;DHT22;7945;48.816;11.506;2023-08-24T10:52:30;30.30;73.20
15690;DHT22;7945;48.816;11.506;2023-08-24T10:54:57;29.90;73.20
15690;DHT22;7945;48.816;11.506;2023-08-24T10:57:30;30.10;73.50
15690;DHT22;7945;48.816;11.506;2023-08-24T11:00:04;30.20;73.50
15690;DHT22;7945;48.816;11.506;2023-08-24T11:02:42;30.30;74.00
15690;DHT22;7945;48.816;11.506;2023-08-24T11:05:18;30.30;73.30
15690;DHT22;7945;48.816;11.506;2023-08-24T11:07:49;30.40;73.40
15690;DHT22;7945;48.816;11.506;2023-08-24T11:10:16;30.40;73.40
15690;DHT22;7945;48.816;11.506;2023-08-24T11:13:06;30.40;73.20
15690;DHT22;7945;48.816;11.506;2023-08-24T11:15:34;30.70;73.00
15690;DHT22;7945;48.816;11.506;2023-08-24T11:18:21;30.60;72.50
15690;DHT22;7945;48.816;11.506;2023-08-24T11:20:50;30.70;73.00
15690;DHT22;7945;48.816;11.506;2023-08-24T11:23:18;30.70;73.40
15690;DHT22;7945;48.816;11.506;2023-08-24T11:25:45;30.80;72.90
15690;DHT22;7945;48.816;11.506;2023-08-24T11:28:17;31.00;72.30
15690;DHT22;7945;48.816;11.506;2023-08-24T11:30:45;31.10;72.40
15690;DHT22;7945;48.816;11.506;2023-08-24T11:33:13;31.00;72.10
15690;DHT22;7945;48.816;11.506;2023-08-24T11:35:42;31.20;72.60
15690;DHT22;7945;48.816;11.506;2023-08-24T11:38:09;31.20;71.90
15690;DHT22;7945;48.816;11.506;2023-08-24T11:40:35;31.20;72.10
15690;DHT22;7945;48.816;11.506;2023-08-24T11:43:03;31.20;72.00
15690;DHT22;7945;48.816;11.506;2023-08-24T11:45:31;31.20;71.60
15690;DHT22;7945;48.816;11.506;2023-08-24T11:47:59;31.30;71.30
15690;DHT22;7945;48.816;11.506;2023-08-24T11:50:28;31.30;71.40
15690;DHT22;7945;48.816;11.506;2023-08-24T11:52:55;31.50;71.80
15690;DHT22;7945;48.816;11.506;2023-08-24T11:55:23;31.60;71.40
15690;DHT22;7945;48.816;11.506;2023-08-24T11:57:50;31.60;70.50
15690;DHT22;7945;48.816;11.506;2023-08-24T12:00:18;31.60;70.90
15690;DHT22;7945;48.816;11.506;2023-08-24T12:02:45;31.70;70.60
15690;DHT22;7945;48.816;11.506;2023-08-24T12:05:22;31.80;70.30
15690;DHT22;7945;48.816;11.506;2023-08-24T12:07:51;32.00;70.80
15690;DHT22;7945;48.816;11.506;2023-08-24T12:10:18;32.00;69.90
15690;DHT22;7945;48.816;11.506;2023-08-24T12:12:45;32.00;70.00
15690;DHT22;7945;48.816;11.506;2023-08-24T12:15:19;32.00;70.30
15690;DHT22;7945;48.816;11.506;2023-08-24T12:17:47;32.00;70.90
15690;DHT22;7945;48.816;11.506;2023-08-24T12:20:21;31.90;70.60
15690;DHT22;7945;48.816;11.506;2023-08-24T12:22:53;31.90;70.20
15690;DHT22;7945;48.816;11.506;2023-08-24T12:25:22;31.80;69.70
15690;DHT22;7945;48.816;11.506;2023-08-24T12:27:50;31.90;70.40
15690;DHT22;7945;48.816;11.506;2023-08-24T12:30:17;32.00;70.70
15690;DHT22;7945;48.816;11.506;2023-08-24T12:32:45;32.00;70.30
15690;DHT22;7945;48.816;11.506;2023-08-24T12:35:13;32.10;70.80
15690;DHT22;7945;48.816;11.506;2023-08-24T12:37:40;32.20;69.80
15690;DHT22;7945;48.816;11.506;2023-08-24T12:40:09;32.10;69.10
15690;DHT22;7945;48.816;11.506;2023-08-24T12:42:36;32.10;68.90
15690;DHT22;7945;48.816;11.506;2023-08-24T12:45:05;32.20;68.80
15690;DHT22;7945;48.816;11.506;2023-08-24T12:47:32;32.20;69.10
15690;DHT22;7945;48.816;11.506;2023-08-24T12:50:00;32.20;69.40
15690;DHT22;7945;48.816;11.506;2023-08-24T12:52:27;32.20;69.40
15690;DHT22;7945;48.816;11.506;2023-08-24T12:54:53;32.20;68.90
15690;DHT22;7945;48.816;11.506;2023-08-24T12:57:22;32.30;69.10
15690;DHT22;7945;48.816;11.506;2023-08-24T12:59:50;32.20;69.20
15690;DHT22;7945;48.816;11.506;2023-08-24T13:02:17;32.20;69.20
15690;DHT22;7945;48.816;11.506;2023-08-24T13:04:44;32.10;69.30
15690;DHT22;7945;48.816;11.506;2023-08-24T13:07:10;32.20;69.80
15690;DHT22;7945;48.816;11.506;2023-08-24T13:09:37;32.30;69.00
15690;DHT22;7945;48.816;11.506;2023-08-24T13:12:04;32.30;68.90
15690;DHT22;7945;48.816;11.506;2023-08-24T13:14:32;32.40;68.80
15690;DHT22;7945;48.816;11.506;2023-08-24T13:16:59;32.40;68.60
15690;DHT22;7945;48.816;11.506;2023-08-24T13:19:26;32.20;68.80
15690;DHT22;7945;48.816;11.506;2023-08-24T13:21:53;32.10;69.50
15690;DHT22;7945;48.816;11.506;2023-08-24T13:24:20;32.10;69.60
15690;DHT22;7945;48.816;11.506;2023-08-24T13:26:46;32.10;69.80
15690;DHT22;7945;48.816;11.506;2023-08-24T13:29:14;32.10;70.30
15690;DHT22;7945;48.816;11.506;2023-08-24T13:31:42;32.10;69.70
15690;DHT22;7945;48.816;11.506;2023-08-24T13:34:08;32.10;69.60
15690;DHT22;7945;48.816;11.506;2023-08-24T13:36:35;32.10;69.80
15690;DHT22;7945;48.816;11.506;2023-08-24T13:39:02;32.10;69.80
15690;DHT22;7945;48.816;11.506;2023-08-24T13:41:30;32.20;69.80
15690;DHT22;7945;48.816;11.506;2023-08-24T13:43:56;32.20;69.40
15690;DHT22;7945;48.816;11.506;2023-08-24T13:46:23;32.20;69.40
15690;DHT22;7945;48.816;11.506;2023-08-24T13:48:51;32.10;69.10
15690;DHT22;7945;48.816;11.506;2023-08-24T13:51:18;32.10;69.50
15690;DHT22;7945;48.816;11.506;2023-08-24T13:53:45;32.10;69.70
15690;DHT22;7945;48.816;11.506;2023-08-24T13:56:12;32.00;69.60
15690;DHT22;7945;48.816;11.506;2023-08-24T13:58:38;32.00;69.90
15690;DHT22;7945;48.816;11.506;2023-08-24T14:01:05;32.00;70.00
15690;DHT22;7945;48.816;11.506;2023-08-24T14:03:32;32.00;69.70
15690;DHT22;7945;48.816;11.506;2023-08-24T14:06:01;32.00;70.00
15690;DHT22;7945;48.816;11.506;2023-08-24T14:08:28;32.00;70.00
15690;DHT22;7945;48.816;11.506;2023-08-24T14:10:54;32.10;70.30
15690;DHT22;7945;48.816;11.506;2023-08-24T14:13:21;32.10;70.80
15690;DHT22;7945;48.816;11.506;2023-08-24T14:15:50;32.00;70.60
15690;DHT22;7945;48.816;11.506;2023-08-24T14:18:18;32.00;70.80
15690;DHT22;7945;48.816;11.506;2023-08-24T14:20:45;32.00;70.80
15690;DHT22;7945;48.816;11.506;2023-08-24T14:23:13;32.20;70.70
15690;DHT22;7945;48.816;11.506;2023-08-24T14:25:40;32.30;70.50
15690;DHT22;7945;48.816;11.506;2023-08-24T14:28:06;32.20;70.30
15690;DHT22;7945;48.816;11.506;2023-08-24T14:30:33;32.30;70.50
15690;DHT22;7945;48.816;11.506;2023-08-24T14:33:00;32.20;70.80
15690;DHT22;7945;48.816;11.506;2023-08-24T14:35:27;32.10;70.90
15690;DHT22;7945;48.816;11.506;2023-08-24T14:37:54;32.00;70.90
15690;DHT22;7945;48.816;11.506;2023-08-24T14:40:22;32.00;70.90
15690;DHT22;7945;48.816;11.506;2023-08-24T14:42:49;32.00;71.00
15690;DHT22;7945;48.816;11.506;2023-08-24T14:45:16;32.00;71.50
15690;DHT22;7945;48.816;11.506;2023-08-24T14:47:44;31.90;71.50
15690;DHT22;7945;48.816;11.506;2023-08-24T14:50:11;31.90;71.60
15690;DHT22;7945;48.816;11.506;2023-08-24T14:52:38;31.80;71.80
15690;DHT22;7945;48.816;11.506;2023-08-24T14:55:06;31.80;72.00
15690;DHT22;7945;48.816;11.506;2023-08-24T14:57:36;31.80;72.00
15690;DHT22;7945;48.816;11.506;2023-08-24T15:00:03;31.80;71.90
15690;DHT22;7945;48.816;11.506;2023-08-24T15:02:34;31.80;71.90
15690;DHT22;7945;48.816;11.506;2023-08-24T15:05:02;31.80;72.00
15690;DHT22;7945;48.816;11.506;2023-08-24T15:07:30;31.80;72.10
15690;DHT22;7945;48.816;11.506;2023-08-24T15:09:58;31.80;72.20
15690;DHT22;7945;48.816;11.506;2023-08-24T15:12:24;31.80;71.60
15690;DHT22;7945;48.816;11.506;2023-08-24T15:15:00;31.90;71.60
15690;DHT22;7945;48.816;11.506;2023-08-24T15:17:29;31.90;72.10
15690;DHT22;7945;48.816;11.506;2023-08-24T15:19:55;32.00;72.00
15690;DHT22;7945;48.816;11.506;2023-08-24T15:22:22;32.10;71.80
15690;DHT22;7945;48.816;11.506;2023-08-24T15:24:49;32.10;71.90
15690;DHT22;7945;48.816;11.506;2023-08-24T15:27:16;32.20;72.00
15690;DHT22;7945;48.816;11.506;2023-08-24T15:29:44;32.20;71.90
15690;DHT22;7945;48.816;11.506;2023-08-24T15:32:12;32.30;71.60
15690;DHT22;7945;48.816;11.506;2023-08-24T15:34:39;32.20;71.10
15690;DHT22;7945;48.816;11.506;2023-08-24T15:37:06;32.20;71.00
15690;DHT22;7945;48.816;11.506;2023-08-24T15:39:36;32.10;71.40